createdAt,value
2019-03-06T00:00:43.411Z,58.88
2019-03-06T00:03:16.341Z,58.93
2019-03-06T00:05:48.101Z,58.83
2019-03-06T00:08:19.389Z,58.76
2019-03-06T00:10:50.534Z,58.60
2019-03-06T00:13:21.757Z,58.17
2019-03-06T00:15:53.029Z,58.13
2019-03-06T00:18:28.164Z,58.17
2019-03-06T00:20:59.438Z,57.77
2019-03-06T00:23:30.529Z,57.66
2019-03-06T00:26:02.245Z,57.65
2019-03-06T00:28:35.675Z,57.73
2019-03-06T00:31:06.794Z,57.42
2019-03-06T00:33:37.987Z,57.25
2019-03-06T00:36:11.227Z,57.63
2019-03-06T00:38:42.575Z,57.83
2019-03-06T00:41:31.325Z,57.88
2019-03-06T00:44:03.968Z,58.03
2019-03-06T00:46:35.205Z,57.89
2019-03-06T00:49:06.287Z,57.78
2019-03-06T00:51:37.368Z,57.88
2019-03-06T00:54:08.437Z,57.71
2019-03-06T00:56:39.604Z,57.71
2019-03-06T00:59:10.647Z,57.73
2019-03-06T01:01:41.724Z,57.55
2019-03-06T01:04:12.897Z,57.41
2019-03-06T01:06:44.130Z,57.39
2019-03-06T01:09:15.393Z,57.22
2019-03-06T01:11:46.685Z,57.30
2019-03-06T01:14:17.776Z,57.27
2019-03-06T01:16:48.951Z,57.38
2019-03-06T01:19:27.885Z,57.40
2019-03-06T01:21:59.081Z,57.46
2019-03-06T01:24:30.204Z,57.59
2019-03-06T01:27:01.415Z,57.73
2019-03-06T01:29:32.595Z,57.71
2019-03-06T01:32:03.831Z,57.97
2019-03-06T01:34:48.698Z,57.79
2019-03-06T01:37:24.353Z,57.82
2019-03-06T01:39:57.053Z,57.80
2019-03-06T01:42:29.881Z,57.91
2019-03-06T01:45:00.926Z,57.94
2019-03-06T01:47:33.352Z,58.21
2019-03-06T01:50:06.792Z,57.87
2019-03-06T01:52:37.827Z,57.82
2019-03-06T01:55:14.782Z,58.10
2019-03-06T01:57:45.927Z,57.79
2019-03-06T02:00:17.777Z,57.70
2019-03-06T02:02:49.092Z,57.81
2019-03-06T02:05:20.233Z,57.77
2019-03-06T02:07:53.371Z,57.32
2019-03-06T02:10:24.675Z,57.33
2019-03-06T02:12:55.894Z,57.47
2019-03-06T02:15:27.114Z,56.92
2019-03-06T02:17:58.353Z,56.94
2019-03-06T02:20:29.589Z,56.84
2019-03-06T02:23:00.803Z,55.82
2019-03-06T02:25:32.284Z,55.71
2019-03-06T02:28:05.610Z,55.29
2019-03-06T02:30:36.718Z,55.04
2019-03-06T02:33:07.810Z,54.61
2019-03-06T02:35:39.292Z,54.63
2019-03-06T02:38:11.755Z,54.37
2019-03-06T02:40:42.962Z,54.17
2019-03-06T02:43:14.212Z,54.18
2019-03-06T02:45:45.314Z,54.18
2019-03-06T02:48:16.417Z,54.15
2019-03-06T02:50:47.544Z,54.11
2019-03-06T02:53:18.752Z,54.17
2019-03-06T02:55:49.844Z,54.28
2019-03-06T02:58:22.826Z,54.30
2019-03-06T03:00:58.327Z,54.48
2019-03-06T03:03:31.273Z,54.35
2019-03-06T03:06:04.052Z,54.09
2019-03-06T03:08:36.465Z,54.18
2019-03-06T03:11:07.608Z,54.15
2019-03-06T03:13:38.803Z,53.99
2019-03-06T03:16:09.829Z,54.00
2019-03-06T03:18:41.292Z,53.96
2019-03-06T03:21:13.115Z,53.96
2019-03-06T03:23:44.293Z,53.80
2019-03-06T03:26:15.371Z,53.84
2019-03-06T03:28:46.517Z,54.11
2019-03-06T03:31:19.265Z,54.35
2019-03-06T03:33:50.402Z,54.47
2019-03-06T03:36:21.661Z,54.73
2019-03-06T03:38:53.574Z,54.89
2019-03-06T03:41:24.866Z,55.26
2019-03-06T03:43:56.068Z,55.58
2019-03-06T03:46:27.362Z,55.77
2019-03-06T03:49:00.694Z,55.94
2019-03-06T03:51:32.016Z,55.81
2019-03-06T03:54:03.223Z,55.94
2019-03-06T03:56:34.234Z,56.08
2019-03-06T03:59:05.404Z,56.08
2019-03-06T04:01:36.569Z,56.43
2019-03-06T04:04:07.822Z,56.55
2019-03-06T04:06:38.892Z,56.72
2019-03-06T04:09:10.154Z,57.11
2019-03-06T04:11:41.400Z,57.36
2019-03-06T04:14:14.161Z,57.64
2019-03-06T04:16:47.040Z,57.56
2019-03-06T04:19:18.269Z,57.74
2019-03-06T04:21:49.785Z,57.61
2019-03-06T04:24:21.043Z,57.94
2019-03-06T04:26:52.048Z,57.86
2019-03-06T04:29:23.302Z,57.73
2019-03-06T04:31:54.367Z,57.91
2019-03-06T04:34:25.535Z,57.75
2019-03-06T04:36:56.946Z,57.47
2019-03-06T04:39:28.231Z,57.23
2019-03-06T04:42:00.188Z,57.20
2019-03-06T04:44:31.442Z,57.11
2019-03-06T04:47:02.456Z,56.82
2019-03-06T04:49:34.956Z,56.74
2019-03-06T04:52:06.394Z,56.86
2019-03-06T04:54:37.549Z,56.76
2019-03-06T04:57:08.878Z,56.97
2019-03-06T04:59:41.250Z,56.94
2019-03-06T05:02:12.327Z,57.12
2019-03-06T05:04:43.483Z,57.14
2019-03-06T05:07:14.796Z,56.90
2019-03-06T05:09:46.210Z,56.82
2019-03-06T05:12:17.303Z,56.92
2019-03-06T05:14:48.829Z,57.02
2019-03-06T05:17:30.479Z,57.19
2019-03-06T05:20:01.743Z,57.01
2019-03-06T05:22:33.209Z,57.27
2019-03-06T05:25:06.294Z,56.73
2019-03-06T05:27:37.490Z,56.78
2019-03-06T05:30:13.976Z,56.77
2019-03-06T05:32:50.841Z,56.56
2019-03-06T05:35:37.160Z,56.22
2019-03-06T05:38:11.505Z,56.14
2019-03-06T05:40:43.565Z,55.94
2019-03-06T05:43:14.971Z,55.87
2019-03-06T05:45:46.142Z,55.69
2019-03-06T05:48:17.348Z,55.59
2019-03-06T05:50:48.627Z,55.47
2019-03-06T05:53:20.237Z,55.24
2019-03-06T05:55:51.480Z,55.21
2019-03-06T05:58:22.655Z,54.99
2019-03-06T06:00:54.639Z,55.02
2019-03-06T06:03:27.538Z,54.95
2019-03-06T06:05:58.685Z,54.57
2019-03-06T06:08:29.921Z,53.92
2019-03-06T06:11:02.137Z,53.81
2019-03-06T06:13:34.759Z,53.58
2019-03-06T06:16:06.071Z,53.36
2019-03-06T06:18:38.949Z,53.06
2019-03-06T06:21:23.752Z,52.83
2019-03-06T06:24:00.239Z,52.38
2019-03-06T06:26:31.863Z,52.40
2019-03-06T06:29:05.091Z,52.04
2019-03-06T06:31:38.917Z,51.83
2019-03-06T06:34:14.959Z,51.45
2019-03-06T06:36:46.326Z,51.31
2019-03-06T06:39:17.621Z,51.25
2019-03-06T06:41:48.740Z,50.99
2019-03-06T06:44:19.910Z,50.97
2019-03-06T06:46:54.391Z,50.67
2019-03-06T06:49:25.593Z,50.61
2019-03-06T06:52:18.321Z,50.80
2019-03-06T06:55:14.270Z,50.86
2019-03-06T06:58:00.758Z,50.85
2019-03-06T07:00:52.338Z,50.97
2019-03-06T07:03:28.381Z,51.32
2019-03-06T07:06:01.202Z,50.97
2019-03-06T07:08:37.878Z,50.99
2019-03-06T07:11:13.868Z,51.18
2019-03-06T07:13:47.112Z,50.98
2019-03-06T07:16:25.808Z,51.04
2019-03-06T07:19:04.651Z,50.45
2019-03-06T07:21:48.559Z,50.86
2019-03-06T07:24:27.382Z,50.55
2019-03-06T07:27:22.300Z,50.79
2019-03-06T07:30:13.244Z,50.51
2019-03-06T07:32:50.335Z,50.58
2019-03-06T07:36:05.784Z,49.95
2019-03-06T07:38:37.073Z,49.89
2019-03-06T07:41:26.585Z,49.85
2019-03-06T07:43:59.409Z,49.71
2019-03-06T07:46:35.153Z,49.93
2019-03-06T07:49:19.883Z,49.90
2019-03-06T07:52:09.118Z,49.87
2019-03-06T07:54:42.032Z,49.93
2019-03-06T07:57:14.916Z,49.64
2019-03-06T07:59:46.463Z,49.42
2019-03-06T08:02:25.292Z,48.84
2019-03-06T08:04:58.099Z,48.67
2019-03-06T08:07:29.607Z,48.37
2019-03-06T08:10:00.860Z,48.23
2019-03-06T08:12:36.022Z,48.33
2019-03-06T08:15:16.905Z,47.87
2019-03-06T08:17:49.778Z,47.22
2019-03-06T08:20:22.641Z,46.70
2019-03-06T08:23:12.061Z,46.97
2019-03-06T08:25:48.428Z,47.95
2019-03-06T08:28:19.995Z,48.13
2019-03-06T08:30:52.775Z,48.16
2019-03-06T08:33:24.021Z,48.01
2019-03-06T08:35:55.637Z,47.49
2019-03-06T08:38:26.814Z,47.43
2019-03-06T08:41:04.319Z,47.73
2019-03-06T08:43:32.244Z,46.91
2019-03-06T08:46:07.929Z,46.74
2019-03-06T08:48:46.842Z,46.96
2019-03-06T08:51:25.918Z,46.85
2019-03-06T08:53:58.724Z,46.63
2019-03-06T08:56:35.540Z,46.05
2019-03-06T08:59:20.478Z,46.26
2019-03-06T09:02:00.490Z,45.95
2019-03-06T09:04:34.056Z,45.76
2019-03-06T09:07:18.945Z,45.91
2019-03-06T09:10:10.965Z,45.54
2019-03-06T09:12:49.555Z,45.36
2019-03-06T09:15:23.869Z,45.37
2019-03-06T09:18:21.840Z,45.46
2019-03-06T09:20:58.952Z,45.05
2019-03-06T09:23:40.983Z,45.06
2019-03-06T09:26:30.282Z,45.11
2019-03-06T09:29:11.117Z,44.50
2019-03-06T09:31:44.104Z,44.26
2019-03-06T09:34:25.847Z,43.80
2019-03-06T09:37:04.751Z,42.57
2019-03-06T09:39:37.684Z,41.60
2019-03-06T09:42:15.321Z,40.88
2019-03-06T09:44:57.133Z,41.69
2019-03-06T09:47:30.436Z,40.67
2019-03-06T09:50:03.667Z,40.87
2019-03-06T09:52:48.608Z,40.20
2019-03-06T09:55:33.538Z,39.73
2019-03-06T09:58:08.025Z,40.37
2019-03-06T10:00:53.379Z,40.08
2019-03-06T10:03:37.270Z,40.22
2019-03-06T10:06:13.994Z,40.09
2019-03-06T10:08:47.199Z,40.04
2019-03-06T10:11:20.614Z,40.04
2019-03-06T10:13:56.133Z,39.48
2019-03-06T10:16:48.753Z,38.95
2019-03-06T10:19:18.802Z,39.28
2019-03-06T10:21:50.080Z,39.27
2019-03-06T10:24:22.957Z,39.26
2019-03-06T10:26:54.959Z,39.60
2019-03-06T10:29:26.983Z,39.39
2019-03-06T10:31:58.240Z,38.85
2019-03-06T10:34:30.696Z,38.90
2019-03-06T10:37:02.251Z,38.54
2019-03-06T10:39:33.825Z,38.13
2019-03-06T10:42:05.141Z,38.20
2019-03-06T10:44:38.490Z,38.10
2019-03-06T10:47:09.838Z,38.12
2019-03-06T10:49:41.474Z,37.69
2019-03-06T10:52:12.750Z,37.36
2019-03-06T10:54:44.879Z,36.53
2019-03-06T10:57:16.451Z,36.50
2019-03-06T10:59:47.698Z,36.18
2019-03-06T11:02:19.147Z,36.07
2019-03-06T11:04:52.181Z,36.61
2019-03-06T11:07:23.326Z,35.96
2019-03-06T11:09:54.651Z,36.48
2019-03-06T11:12:25.844Z,36.05
2019-03-06T11:14:57.207Z,35.24
2019-03-06T11:17:28.565Z,35.52
2019-03-06T11:20:00.324Z,34.92
2019-03-06T11:22:31.607Z,35.72
2019-03-06T11:25:02.946Z,34.22
2019-03-06T11:27:35.371Z,33.50
2019-03-06T11:30:12.696Z,33.03
2019-03-06T11:32:44.089Z,33.32
2019-03-06T11:35:18.455Z,34.00
2019-03-06T11:37:51.314Z,34.04
2019-03-06T11:40:22.650Z,34.01
2019-03-06T11:42:53.940Z,34.09
2019-03-06T11:45:25.648Z,34.22
2019-03-06T11:47:57.075Z,34.28
2019-03-06T11:50:40.391Z,34.68
2019-03-06T11:53:06.204Z,34.75
2019-03-06T11:55:38.063Z,34.77
2019-03-06T11:58:16.992Z,35.05
2019-03-06T12:00:52.828Z,34.39
2019-03-06T12:03:24.988Z,34.41
2019-03-06T12:05:57.772Z,34.45
2019-03-06T12:08:29.053Z,34.16
2019-03-06T12:11:00.776Z,34.16
2019-03-06T12:13:40.443Z,34.32
2019-03-06T12:16:16.804Z,34.60
2019-03-06T12:18:58.682Z,34.21
2019-03-06T12:21:31.461Z,34.44
2019-03-06T12:24:04.814Z,34.45
2019-03-06T12:26:36.753Z,34.65
2019-03-06T12:29:09.524Z,34.56
2019-03-06T12:31:40.822Z,34.50
2019-03-06T12:34:12.126Z,34.49
2019-03-06T12:36:45.470Z,34.59
2019-03-06T12:39:18.354Z,34.76
2019-03-06T12:41:49.998Z,33.95
2019-03-06T12:44:22.272Z,34.11
2019-03-06T12:46:57.545Z,34.30
2019-03-06T12:49:31.315Z,34.55
2019-03-06T12:52:04.841Z,34.26
2019-03-06T12:54:36.077Z,34.38
2019-03-06T12:57:07.629Z,34.41
2019-03-06T12:59:38.874Z,34.62
2019-03-06T13:02:10.095Z,34.92
2019-03-06T13:04:42.344Z,35.31
2019-03-06T13:07:13.610Z,35.60
2019-03-06T13:09:45.038Z,36.22
2019-03-06T13:12:16.607Z,36.27
2019-03-06T13:14:48.049Z,36.30
2019-03-06T13:17:19.306Z,36.61
2019-03-06T13:19:50.561Z,36.61
2019-03-06T13:22:21.755Z,36.76
2019-03-06T13:24:53.272Z,36.73
2019-03-06T13:27:24.559Z,37.12
2019-03-06T13:29:55.847Z,37.15
2019-03-06T13:32:28.753Z,37.41
2019-03-06T13:35:00.249Z,36.77
2019-03-06T13:37:31.574Z,36.79
2019-03-06T13:40:03.432Z,37.04
2019-03-06T13:42:35.995Z,37.40
2019-03-06T13:45:12.996Z,37.67
2019-03-06T13:47:44.401Z,37.83
2019-03-06T13:50:16.629Z,37.41
2019-03-06T13:52:51.750Z,36.91
2019-03-06T13:55:22.949Z,36.77
2019-03-06T13:57:54.406Z,37.26
2019-03-06T14:00:26.748Z,37.37
2019-03-06T14:02:58.005Z,37.26
2019-03-06T14:05:29.194Z,37.29
2019-03-06T14:08:01.007Z,37.35
2019-03-06T14:10:32.992Z,37.59
2019-03-06T14:13:04.564Z,37.65
2019-03-06T14:15:35.716Z,37.80
2019-03-06T14:18:07.052Z,38.30
2019-03-06T14:20:38.471Z,38.81
2019-03-06T14:23:09.993Z,39.17
2019-03-06T14:25:44.886Z,39.62
2019-03-06T14:28:16.163Z,39.76
2019-03-06T14:30:47.826Z,40.08
2019-03-06T14:33:19.320Z,40.18
2019-03-06T14:35:51.813Z,40.50
2019-03-06T14:38:25.031Z,40.76
2019-03-06T14:40:56.311Z,40.75
2019-03-06T14:43:27.489Z,40.80
2019-03-06T14:45:58.692Z,40.93
2019-03-06T14:48:30.020Z,40.93
2019-03-06T14:51:01.340Z,41.00
2019-03-06T14:53:32.577Z,41.28
2019-03-06T14:56:03.830Z,41.15
2019-03-06T14:58:35.194Z,41.38
2019-03-06T15:01:06.675Z,41.45
2019-03-06T15:03:38.935Z,41.49
2019-03-06T15:06:10.072Z,41.63
2019-03-06T15:08:41.447Z,41.86
2019-03-06T15:11:12.650Z,41.89
2019-03-06T15:13:43.834Z,41.83
2019-03-06T15:16:17.121Z,42.04
2019-03-06T15:18:48.376Z,42.12
2019-03-06T15:21:19.750Z,42.32
2019-03-06T15:23:51.127Z,42.49
2019-03-06T15:26:22.326Z,42.74
2019-03-06T15:28:53.767Z,42.58
2019-03-06T15:31:25.024Z,42.63
2019-03-06T15:33:56.536Z,42.88
2019-03-06T15:36:27.913Z,42.96
2019-03-06T15:38:59.242Z,43.04
2019-03-06T15:41:31.899Z,43.19
2019-03-06T15:44:03.087Z,43.16
2019-03-06T15:46:34.375Z,43.32
2019-03-06T15:49:06.118Z,43.27
2019-03-06T15:51:37.181Z,43.32
2019-03-06T15:54:10.748Z,43.35
2019-03-06T15:56:42.316Z,43.33
2019-03-06T15:59:15.174Z,43.54
2019-03-06T16:01:46.593Z,43.70
2019-03-06T16:04:17.838Z,43.65
2019-03-06T16:06:53.910Z,43.48
2019-03-06T16:09:23.062Z,43.71
2019-03-06T16:11:54.321Z,43.87
2019-03-06T16:14:25.603Z,44.12
2019-03-06T16:16:56.751Z,43.99
2019-03-06T16:19:28.032Z,44.08
2019-03-06T16:21:59.220Z,43.97
2019-03-06T16:24:31.132Z,44.06
2019-03-06T16:27:02.319Z,44.31
2019-03-06T16:29:33.552Z,44.21
2019-03-06T16:32:04.755Z,44.38
2019-03-06T16:34:36.237Z,44.64
2019-03-06T16:37:09.096Z,44.59
2019-03-06T16:39:40.628Z,44.61
2019-03-06T16:42:11.715Z,44.76
2019-03-06T16:44:42.916Z,44.81
2019-03-06T16:47:14.358Z,45.01
2019-03-06T16:49:45.759Z,45.13
2019-03-06T16:52:17.162Z,45.04
2019-03-06T16:54:48.515Z,45.08
2019-03-06T16:57:19.929Z,45.03
2019-03-06T16:59:51.252Z,45.07
2019-03-06T17:02:22.612Z,45.27
2019-03-06T17:04:54.270Z,45.39
2019-03-06T17:07:25.350Z,45.33
2019-03-06T17:09:56.813Z,45.35
2019-03-06T17:12:28.016Z,45.35
2019-03-06T17:15:00.347Z,45.35
2019-03-06T17:17:31.546Z,45.32
2019-03-06T17:20:02.647Z,45.32
2019-03-06T17:22:35.980Z,45.50
2019-03-06T17:25:08.578Z,45.29
2019-03-06T17:27:40.915Z,45.22
2019-03-06T17:30:32.319Z,45.41
2019-03-06T17:33:12.913Z,45.52
2019-03-06T17:35:44.313Z,45.67
2019-03-06T17:38:20.062Z,45.55
2019-03-06T17:40:51.287Z,45.68
2019-03-06T17:43:24.577Z,45.67
2019-03-06T17:45:55.595Z,45.85
2019-03-06T17:48:31.221Z,45.80
2019-03-06T17:51:02.509Z,45.68
2019-03-06T17:53:33.774Z,45.91
2019-03-06T17:56:05.255Z,46.04
2019-03-06T17:58:36.670Z,46.07
2019-03-06T18:01:09.555Z,46.08
2019-03-06T18:03:45.158Z,46.14
2019-03-06T18:06:16.341Z,46.11
2019-03-06T18:08:47.576Z,46.15
2019-03-06T18:11:21.699Z,46.32
2019-03-06T18:13:53.158Z,46.59
2019-03-06T18:16:24.983Z,46.84
2019-03-06T18:18:57.827Z,46.92
2019-03-06T18:21:29.213Z,47.21
2019-03-06T18:24:00.369Z,47.37
2019-03-06T18:26:32.061Z,47.47
2019-03-06T18:29:04.219Z,47.55
2019-03-06T18:31:36.332Z,47.57
2019-03-06T18:34:07.388Z,47.83
2019-03-06T18:36:41.547Z,47.95
2019-03-06T18:39:14.446Z,48.05
2019-03-06T18:41:45.720Z,48.29
2019-03-06T18:44:17.388Z,48.47
2019-03-06T18:46:48.496Z,48.60
2019-03-06T18:49:20.546Z,48.89
2019-03-06T18:51:51.798Z,48.84
2019-03-06T18:54:24.879Z,49.11
2019-03-06T18:56:56.398Z,49.31
2019-03-06T18:59:30.512Z,49.47
2019-03-06T19:02:02.203Z,49.57
2019-03-06T19:04:33.388Z,49.58
2019-03-06T19:07:04.464Z,49.79
2019-03-06T19:09:35.735Z,49.90
2019-03-06T19:12:07.603Z,49.82
2019-03-06T19:14:38.973Z,50.40
2019-03-06T19:17:10.014Z,50.64
2019-03-06T19:19:41.156Z,50.79
2019-03-06T19:22:12.346Z,50.97
2019-03-06T19:24:43.518Z,51.09
2019-03-06T19:27:14.728Z,51.11
2019-03-06T19:29:46.014Z,51.17
2019-03-06T19:32:17.348Z,51.24
2019-03-06T19:34:48.602Z,51.28
2019-03-06T19:37:23.063Z,51.53
2019-03-06T19:39:54.318Z,51.54
2019-03-06T19:42:25.656Z,51.74
2019-03-06T19:44:56.934Z,51.92
2019-03-06T19:47:29.662Z,51.95
2019-03-06T19:50:00.832Z,51.99
2019-03-06T19:52:32.010Z,52.32
2019-03-06T19:55:03.212Z,52.47
2019-03-06T19:57:37.741Z,52.79
2019-03-06T20:00:15.983Z,53.18
2019-03-06T20:02:50.681Z,53.38
2019-03-06T20:05:22.561Z,53.63
2019-03-06T20:07:55.308Z,53.73
2019-03-06T20:10:26.512Z,53.84
2019-03-06T20:12:57.844Z,53.95
2019-03-06T20:15:29.022Z,54.18
2019-03-06T20:18:00.178Z,54.47
2019-03-06T20:20:38.003Z,54.81
2019-03-06T20:23:09.269Z,55.04
2019-03-06T20:25:40.625Z,55.26
2019-03-06T20:28:12.051Z,55.24
2019-03-06T20:30:46.929Z,55.51
2019-03-06T20:33:19.320Z,55.68
2019-03-06T20:35:50.726Z,55.99
2019-03-06T20:38:21.999Z,56.35
2019-03-06T20:40:54.201Z,56.61
2019-03-06T20:43:25.548Z,57.02
2019-03-06T20:45:56.846Z,57.10
2019-03-06T20:48:28.830Z,57.19
2019-03-06T20:51:00.907Z,57.59
2019-03-06T20:53:35.205Z,57.87
2019-03-06T20:56:06.433Z,58.41
2019-03-06T20:58:37.696Z,58.81
2019-03-06T21:01:09.967Z,59.40
2019-03-06T21:03:41.431Z,59.52
2019-03-06T21:06:12.639Z,59.81
2019-03-06T21:08:43.951Z,60.07
2019-03-06T21:11:15.286Z,60.12
2019-03-06T21:13:46.558Z,60.38
2019-03-06T21:16:17.747Z,60.72
2019-03-06T21:18:48.920Z,61.06
2019-03-06T21:21:20.129Z,61.01
2019-03-06T21:23:51.257Z,60.92
2019-03-06T21:26:22.597Z,61.02
2019-03-06T21:28:54.043Z,61.44
2019-03-06T21:31:25.305Z,61.59
2019-03-06T21:33:56.539Z,61.88
2019-03-06T21:36:27.740Z,62.22
2019-03-06T21:38:59.097Z,62.36
2019-03-06T21:41:31.607Z,62.03
2019-03-06T21:44:03.084Z,61.84
2019-03-06T21:46:34.205Z,61.09
2019-03-06T21:49:05.495Z,60.83
2019-03-06T21:51:36.691Z,60.98
2019-03-06T21:54:07.885Z,60.65
2019-03-06T21:56:39.436Z,60.47
2019-03-06T21:59:10.641Z,60.18
2019-03-06T22:01:41.959Z,59.89
2019-03-06T22:04:13.165Z,59.55
2019-03-06T22:06:44.410Z,60.01
2019-03-06T22:09:15.650Z,59.21
2019-03-06T22:11:46.944Z,58.98
2019-03-06T22:14:21.024Z,59.09
2019-03-06T22:16:51.641Z,59.06
2019-03-06T22:19:22.961Z,58.90
2019-03-06T22:21:54.342Z,58.93
2019-03-06T22:24:25.490Z,58.96
2019-03-06T22:26:59.276Z,58.90
2019-03-06T22:29:30.498Z,59.07
2019-03-06T22:32:02.597Z,59.24
2019-03-06T22:34:33.741Z,58.99
2019-03-06T22:37:04.890Z,59.08
2019-03-06T22:39:38.283Z,58.66
2019-03-06T22:42:09.679Z,58.27
2019-03-06T22:44:40.916Z,58.65
2019-03-06T22:47:12.408Z,57.98
2019-03-06T22:49:43.457Z,58.04
2019-03-06T22:52:14.597Z,58.00
2019-03-06T22:54:45.905Z,58.52
2019-03-06T22:57:17.214Z,58.53
2019-03-06T22:59:48.392Z,58.62
2019-03-06T23:02:21.484Z,58.75
2019-03-06T23:04:52.641Z,58.91
2019-03-06T23:07:23.974Z,59.14
2019-03-06T23:09:55.171Z,59.24
2019-03-06T23:12:26.353Z,59.13
2019-03-06T23:14:57.815Z,58.95
2019-03-06T23:17:28.942Z,58.85
2019-03-06T23:20:00.213Z,58.46
2019-03-06T23:22:31.714Z,58.32
2019-03-06T23:25:03.404Z,58.32
2019-03-06T23:27:34.751Z,58.33
2019-03-06T23:30:14.172Z,58.46
2019-03-06T23:32:49.364Z,58.54
2019-03-06T23:35:20.499Z,58.75
2019-03-06T23:37:51.703Z,59.15
2019-03-06T23:40:22.843Z,59.21
2019-03-06T23:42:53.908Z,59.66
2019-03-06T23:45:25.887Z,59.63
2019-03-06T23:47:57.065Z,59.92
2019-03-06T23:50:28.132Z,59.86
2019-03-06T23:53:10.365Z,60.07
2019-03-06T23:55:41.826Z,59.90
2019-03-06T23:58:12.953Z,59.79
